Weather at Nev Fish & Game Reg III Headquarters Heliport

Public forecast

Using degrees Fahrenheit for public forecast. Weather courtesy of forecast.io.

Closest aviation weather report (METAR) to Nev Fish & Game Reg III Headquarters Heliport

Closest report is North Las Vegas Metropolitan International Airport, 1.5 nm (2.7 km) NNE. Retrieved 2022/01/27 08:53 UTC (11 minutes ago):

KVGT 270853Z AUTO 00000KT 10SM CLR 07/M13 A3021 RMK AO2 SLP251 T00671133 51002

Closest aviation forecast (TAF) to Nev Fish & Game Reg III Headquarters Heliport

Closest forecast is North Las Vegas Metropolitan International Airport, 1.5 nm (2.7 km) NNE. Retrieved 2022/01/27 06:24 UTC (3 hours ago):

TAF KVGT 270520Z 2706/2806 32005KT P6SM SKC FM271800 02008KT P6SM SKC FM272100 03012G20KT P6SM SKC FM280400 34007KT P6SM SKC